createdAt,value
2023-01-19T00:00:01.748Z,9.1
2023-01-19T00:03:01.904Z,10
2023-01-19T00:06:01.804Z,9.6
2023-01-19T00:09:01.800Z,9.9
2023-01-19T00:12:01.801Z,8.3
2023-01-19T00:15:01.770Z,11.1
2023-01-19T00:18:01.774Z,9.5
2023-01-19T00:21:01.782Z,9.6
2023-01-19T00:24:01.801Z,8.9
2023-01-19T00:27:01.797Z,9.5
2023-01-19T00:30:01.828Z,8.9
2023-01-19T00:33:02.231Z,8.4
2023-01-19T00:36:01.816Z,10.9
2023-01-19T00:39:01.828Z,9.2
2023-01-19T00:42:01.825Z,9.4
2023-01-19T00:45:01.827Z,8.5
2023-01-19T00:48:01.856Z,9.8
2023-01-19T00:51:01.838Z,8.9
2023-01-19T00:54:01.862Z,9
2023-01-19T00:57:01.845Z,10.5
2023-01-19T01:00:01.845Z,11
2023-01-19T01:03:02.318Z,11.5
2023-01-19T01:06:01.883Z,9.5
2023-01-19T01:09:01.864Z,8.8
2023-01-19T01:12:01.858Z,9.3
2023-01-19T01:15:01.865Z,10.4
2023-01-19T01:18:01.865Z,9.5
2023-01-19T01:21:01.938Z,9.2
2023-01-19T01:24:01.973Z,9.9
2023-01-19T01:27:01.884Z,9.8
2023-01-19T01:30:01.882Z,11.6
2023-01-19T01:33:02.261Z,12.4
2023-01-19T01:36:01.891Z,10.4
2023-01-19T01:39:01.906Z,12
2023-01-19T01:42:01.967Z,8.6
2023-01-19T01:45:01.919Z,10.6
2023-01-19T01:48:01.914Z,10.2
2023-01-19T01:51:01.906Z,10.6
2023-01-19T01:54:01.943Z,9.3
2023-01-19T01:57:01.922Z,10.1
2023-01-19T02:00:01.959Z,9.9
2023-01-19T02:03:02.401Z,8.8
2023-01-19T02:06:01.939Z,8.6
2023-01-19T02:09:01.965Z,9.2
2023-01-19T02:12:01.950Z,10.1
2023-01-19T02:15:01.946Z,9.3
2023-01-19T02:18:01.993Z,9.8
2023-01-19T02:21:02.013Z,8.8
2023-01-19T02:24:01.992Z,11.8
2023-01-19T02:27:01.971Z,9.4
2023-01-19T02:30:01.975Z,8.3
2023-01-19T02:33:02.298Z,8.4
2023-01-19T02:36:02.019Z,8.9
2023-01-19T02:39:02.002Z,9
2023-01-19T02:42:01.988Z,8.2
2023-01-19T02:45:01.994Z,8.5
2023-01-19T02:48:02.006Z,9.2
2023-01-19T02:51:01.999Z,8.5
2023-01-19T02:54:02.039Z,9
2023-01-19T02:57:02.009Z,8.6
2023-01-19T03:00:02.017Z,8.6
2023-01-19T03:03:02.576Z,9
2023-01-19T03:06:02.029Z,9.9
2023-01-19T03:09:02.027Z,8.9
2023-01-19T03:12:02.075Z,8.2
2023-01-19T03:15:02.035Z,8.4
2023-01-19T03:18:02.047Z,9.3
2023-01-19T03:21:02.049Z,9.2
2023-01-19T03:24:02.054Z,8.2
2023-01-19T03:27:02.060Z,10.3
2023-01-19T03:30:02.111Z,8.4
2023-01-19T03:33:02.317Z,8.3
2023-01-19T03:36:02.067Z,8.7
2023-01-19T03:39:02.067Z,8.2
2023-01-19T03:42:02.074Z,8.9
2023-01-19T03:45:02.076Z,8.4
2023-01-19T03:48:02.124Z,8.4
2023-01-19T03:51:02.087Z,7.6
2023-01-19T03:54:02.092Z,7.7
2023-01-19T03:57:02.098Z,8
2023-01-19T04:00:02.115Z,8.4
2023-01-19T04:03:02.574Z,8
2023-01-19T04:06:02.123Z,8.1
2023-01-19T04:09:02.104Z,8.4
2023-01-19T04:12:02.115Z,7.7
2023-01-19T04:15:02.119Z,8.5
2023-01-19T04:18:02.127Z,9.3
2023-01-19T04:21:02.121Z,8
2023-01-19T04:24:02.149Z,8.2
2023-01-19T04:27:02.125Z,8.6
2023-01-19T04:30:02.134Z,9.3
2023-01-19T04:33:02.508Z,8.5
2023-01-19T04:36:02.145Z,8.1
2023-01-19T04:39:02.140Z,9.5
2023-01-19T04:42:02.176Z,8.1
2023-01-19T04:45:02.162Z,8.9
2023-01-19T04:48:02.155Z,10.7
2023-01-19T04:51:02.170Z,8.9
2023-01-19T04:54:02.167Z,8.9
2023-01-19T04:57:02.160Z,8.4
2023-01-19T05:00:02.203Z,9.3
2023-01-19T05:03:02.569Z,7.7
2023-01-19T05:06:02.180Z,8.4
2023-01-19T05:09:02.190Z,10.2
2023-01-19T05:12:02.202Z,9.1
2023-01-19T05:15:02.190Z,8.7
2023-01-19T05:18:02.222Z,8.1
2023-01-19T05:21:02.199Z,9.8
2023-01-19T05:24:02.201Z,10.4
2023-01-19T05:27:02.211Z,9.2
2023-01-19T05:30:02.204Z,9.5
2023-01-19T05:33:02.602Z,8.6
2023-01-19T05:36:02.272Z,9.2
2023-01-19T05:39:02.214Z,9.1
2023-01-19T05:42:02.225Z,8.5
2023-01-19T05:45:02.232Z,10
2023-01-19T05:48:02.235Z,9.1
2023-01-19T05:51:02.238Z,9
2023-01-19T05:54:02.272Z,9
2023-01-19T05:57:02.243Z,9.7
2023-01-19T06:00:02.248Z,8.9
2023-01-19T06:03:02.788Z,9.2
2023-01-19T06:06:02.247Z,8.8
2023-01-19T06:09:02.256Z,9.6
2023-01-19T06:12:02.277Z,9.5
2023-01-19T06:15:02.258Z,9.2
2023-01-19T06:18:02.257Z,9.2
2023-01-19T06:21:02.253Z,9
2023-01-19T06:24:02.258Z,9.9
2023-01-19T06:27:02.263Z,10.6
2023-01-19T06:30:02.292Z,9.3
2023-01-19T06:33:02.574Z,9.8
2023-01-19T06:36:02.264Z,9.3
2023-01-19T06:39:02.268Z,9
2023-01-19T06:42:02.271Z,9.1
2023-01-19T06:45:02.284Z,9.1
2023-01-19T06:48:02.305Z,8.4
2023-01-19T06:51:02.281Z,8.7
2023-01-19T06:54:02.277Z,8.5
2023-01-19T06:57:02.808Z,9.1
2023-01-19T07:00:02.294Z,9.4
2023-01-19T07:03:02.724Z,9.5
2023-01-19T07:06:02.320Z,8.4
2023-01-19T07:09:02.286Z,9.3
2023-01-19T07:12:02.286Z,8.6
2023-01-19T07:15:02.301Z,8
2023-01-19T07:18:02.315Z,8.3
2023-01-19T07:21:02.323Z,8.3
2023-01-19T07:24:02.359Z,8.3
2023-01-19T07:27:02.348Z,10
2023-01-19T07:30:02.347Z,9.8
2023-01-19T07:33:02.685Z,8.2
2023-01-19T07:36:02.366Z,9.3
2023-01-19T07:39:02.400Z,8.8
2023-01-19T07:42:02.403Z,9.9
2023-01-19T07:45:02.404Z,9.3
2023-01-19T07:48:02.399Z,8.9
2023-01-19T07:51:02.409Z,8.6
2023-01-19T07:54:02.412Z,10.2
2023-01-19T07:57:02.420Z,8.4
2023-01-19T08:00:02.455Z,7.8
2023-01-19T08:03:03.008Z,8
2023-01-19T08:06:02.439Z,8.7
2023-01-19T08:09:02.455Z,8.4
2023-01-19T08:12:02.449Z,9.4
2023-01-19T08:15:02.456Z,8.3
2023-01-19T08:18:02.488Z,7.3
2023-01-19T08:21:02.470Z,8.2
2023-01-19T08:24:02.507Z,8.4
2023-01-19T08:27:02.477Z,7.7
2023-01-19T08:30:02.471Z,8.3
2023-01-19T08:33:02.844Z,9.2
2023-01-19T08:36:02.502Z,7.8
2023-01-19T08:39:02.489Z,9
2023-01-19T08:42:02.494Z,8.8
2023-01-19T08:45:02.491Z,9.4
2023-01-19T08:48:02.500Z,7.9
2023-01-19T08:51:02.513Z,7.7
2023-01-19T08:54:02.535Z,8.8
2023-01-19T08:57:02.511Z,8.5
2023-01-19T09:00:02.518Z,8.3
2023-01-19T09:03:02.911Z,8.1
2023-01-19T09:06:02.535Z,9.2
2023-01-19T09:09:02.551Z,8.2
2023-01-19T09:12:02.556Z,7.4
2023-01-19T09:15:02.535Z,8.7
2023-01-19T09:18:02.886Z,7.5
2023-01-19T09:21:02.543Z,8.1
2023-01-19T09:24:02.550Z,7.8
2023-01-19T09:27:02.557Z,7.1
2023-01-19T09:30:02.699Z,8.6
2023-01-19T09:33:02.574Z,7.4
2023-01-19T09:36:02.574Z,7
2023-01-19T09:39:02.575Z,8
2023-01-19T09:42:02.589Z,7.7
2023-01-19T09:45:02.630Z,8
2023-01-19T09:48:02.949Z,7.7
2023-01-19T09:51:02.591Z,6.9
2023-01-19T09:54:02.642Z,7.9
2023-01-19T09:57:02.602Z,7.2
2023-01-19T10:00:02.610Z,8.5
2023-01-19T10:03:02.841Z,6.7
2023-01-19T10:06:02.667Z,6.8
2023-01-19T10:09:02.619Z,6
2023-01-19T10:12:02.623Z,8.8
2023-01-19T10:15:02.641Z,7.6
2023-01-19T10:18:02.991Z,7
2023-01-19T10:21:04.607Z,7.8
2023-01-19T10:24:04.055Z,7
2023-01-19T10:27:02.644Z,6.7
2023-01-19T10:30:02.666Z,8
2023-01-19T10:33:03.018Z,9.8
2023-01-19T10:36:02.692Z,7.9
2023-01-19T10:39:02.714Z,8
2023-01-19T10:42:02.695Z,9.6
2023-01-19T10:45:02.676Z,8.9
2023-01-19T10:48:02.710Z,8.8
2023-01-19T10:51:02.669Z,8.9
2023-01-19T10:54:02.726Z,8.3
2023-01-19T10:57:02.693Z,9.8
2023-01-19T11:00:02.793Z,8.3
2023-01-19T11:03:03.069Z,8.4
2023-01-19T11:06:02.695Z,7.4
2023-01-19T11:09:02.698Z,9.1
2023-01-19T11:12:02.705Z,9.2
2023-01-19T11:15:02.707Z,8.5
2023-01-19T11:18:02.747Z,8.7
2023-01-19T11:21:02.724Z,7.3
2023-01-19T11:24:02.776Z,10.1
2023-01-19T11:27:02.723Z,8.9
2023-01-19T11:30:02.733Z,8
2023-01-19T11:33:02.961Z,8.6
2023-01-19T11:36:02.807Z,8.1
2023-01-19T11:39:02.740Z,7.4
2023-01-19T11:42:02.740Z,7.9
2023-01-19T11:45:02.748Z,8.5
2023-01-19T11:48:03.136Z,9
2023-01-19T11:51:02.759Z,8.3
2023-01-19T11:54:02.790Z,7.9
2023-01-19T11:57:02.763Z,7.5
2023-01-19T12:00:02.771Z,7.6
2023-01-19T12:03:02.813Z,8.1
2023-01-19T12:06:02.775Z,7.9
2023-01-19T12:09:02.782Z,7.8
2023-01-19T12:12:02.819Z,8.3
2023-01-19T12:15:03.292Z,6.9
2023-01-19T12:18:03.051Z,7.2
2023-01-19T12:21:04.165Z,7.3
2023-01-19T12:24:02.803Z,7.4
2023-01-19T12:27:02.805Z,7.1
2023-01-19T12:30:02.856Z,7.8
2023-01-19T12:33:02.803Z,7.5
2023-01-19T12:36:02.811Z,7.7
2023-01-19T12:39:02.826Z,7.7
2023-01-19T12:42:02.819Z,7
2023-01-19T12:45:02.834Z,8.1
2023-01-19T12:48:02.879Z,7.4
2023-01-19T12:51:02.832Z,7.8
2023-01-19T12:54:03.144Z,8.5
2023-01-19T12:57:02.846Z,8.5
2023-01-19T13:00:02.851Z,8.7
2023-01-19T13:03:02.854Z,8.4
2023-01-19T13:06:02.910Z,8.3
2023-01-19T13:09:02.863Z,8.2
2023-01-19T13:12:02.867Z,8.5
2023-01-19T13:15:02.875Z,8.5
2023-01-19T13:18:02.884Z,9.9
2023-01-19T13:21:02.881Z,7.9
2023-01-19T13:24:02.918Z,7.9
2023-01-19T13:27:02.892Z,7.3
2023-01-19T13:30:03.005Z,7.7
2023-01-19T13:33:02.899Z,8.2
2023-01-19T13:36:02.904Z,8.9
2023-01-19T13:39:02.905Z,8.4
2023-01-19T13:42:02.940Z,9.2
2023-01-19T13:45:02.916Z,8
2023-01-19T13:48:02.915Z,8.7
2023-01-19T13:51:02.925Z,8.3
2023-01-19T13:54:02.929Z,8.9
2023-01-19T13:57:02.933Z,9
2023-01-19T14:00:02.971Z,7.6
2023-01-19T14:03:02.989Z,7.7
2023-01-19T14:06:02.960Z,8.2
2023-01-19T14:09:02.967Z,6.7
2023-01-19T14:12:02.953Z,6.8
2023-01-19T14:15:02.995Z,6.5
2023-01-19T14:18:03.004Z,7.7
2023-01-19T14:21:02.979Z,7.1
2023-01-19T14:24:02.970Z,7.1
2023-01-19T14:27:02.979Z,6.5
2023-01-19T14:30:02.980Z,8.1
2023-01-19T14:33:02.987Z,6.8
2023-01-19T14:36:03.015Z,7.4
2023-01-19T14:39:03.009Z,7.5
2023-01-19T14:42:03.000Z,7.6
2023-01-19T14:45:02.997Z,7.4
2023-01-19T14:48:03.017Z,8.1
2023-01-19T14:51:03.839Z,8.9
2023-01-19T14:54:03.036Z,8.6
2023-01-19T14:57:03.036Z,9
2023-01-19T15:00:03.021Z,9.2
2023-01-19T15:03:03.025Z,10.1
2023-01-19T15:06:04.380Z,10.1
2023-01-19T15:09:03.032Z,11.8
2023-01-19T15:12:03.063Z,10.9
2023-01-19T15:15:03.043Z,11.8
2023-01-19T15:18:03.058Z,13.2
2023-01-19T15:21:03.134Z,13.5
2023-01-19T15:24:03.079Z,13.1
2023-01-19T15:27:03.065Z,14
2023-01-19T15:30:03.086Z,12.9
2023-01-19T15:33:03.072Z,12.4
2023-01-19T15:36:03.085Z,13
2023-01-19T15:39:03.079Z,12.6
2023-01-19T15:42:03.098Z,12.2
2023-01-19T15:45:03.093Z,13.3
2023-01-19T15:48:03.113Z,13.3
2023-01-19T15:51:03.104Z,13.2
2023-01-19T15:54:03.096Z,13.5
2023-01-19T15:57:03.104Z,13.5
2023-01-19T16:00:03.106Z,12.8
2023-01-19T16:03:03.104Z,11.9
2023-01-19T16:06:03.133Z,12.9
2023-01-19T16:09:03.120Z,13.4
2023-01-19T16:12:03.117Z,12.9
2023-01-19T16:15:03.121Z,12.6
2023-01-19T16:18:03.125Z,14.3
2023-01-19T16:21:03.129Z,14.7
2023-01-19T16:24:03.180Z,15.3
2023-01-19T16:27:03.144Z,21.4
2023-01-19T16:30:03.233Z,18.8
2023-01-19T16:33:03.275Z,16.1
2023-01-19T16:36:03.159Z,15.8
2023-01-19T16:39:03.162Z,18.1
2023-01-19T16:42:03.184Z,16.1
2023-01-19T16:45:03.172Z,14.6
2023-01-19T16:48:03.170Z,16.1
2023-01-19T16:51:03.190Z,16.2
2023-01-19T16:54:03.181Z,15.1
2023-01-19T16:57:03.179Z,14.6
2023-01-19T17:00:03.207Z,15.7
2023-01-19T17:03:03.254Z,16.3
2023-01-19T17:06:03.209Z,14.9
2023-01-19T17:09:03.193Z,17.9
2023-01-19T17:12:03.198Z,17.3
2023-01-19T17:15:03.200Z,16.7
2023-01-19T17:18:03.227Z,17.5
2023-01-19T17:21:03.219Z,17.4
2023-01-19T17:24:03.244Z,18.8
2023-01-19T17:27:03.219Z,20.2
2023-01-19T17:30:03.230Z,20.3
2023-01-19T17:33:03.234Z,20.5
2023-01-19T17:36:03.262Z,23
2023-01-19T17:39:03.240Z,24
2023-01-19T17:42:03.249Z,23.4
2023-01-19T17:45:03.254Z,23.8
2023-01-19T17:48:03.265Z,21.8
2023-01-19T17:51:03.264Z,22.2
2023-01-19T17:54:03.299Z,22.1
2023-01-19T17:57:03.273Z,24.1
2023-01-19T18:00:03.277Z,21.9
2023-01-19T18:03:03.301Z,23.9
2023-01-19T18:06:03.280Z,27.1
2023-01-19T18:09:03.283Z,24.5
2023-01-19T18:12:03.312Z,23.3
2023-01-19T18:15:03.295Z,25.1
2023-01-19T18:18:03.292Z,24.1
2023-01-19T18:21:03.294Z,23.8
2023-01-19T18:24:03.305Z,24.8
2023-01-19T18:27:03.305Z,26.2
2023-01-19T18:30:03.348Z,25.5
2023-01-19T18:33:03.322Z,24.8
2023-01-19T18:36:03.323Z,24.8
2023-01-19T18:39:03.330Z,28
2023-01-19T18:42:03.344Z,26.5
2023-01-19T18:45:03.340Z,25.8
2023-01-19T18:48:03.367Z,29.2
2023-01-19T18:51:03.372Z,27.1
2023-01-19T18:54:03.334Z,25.9
2023-01-19T18:57:03.340Z,27
2023-01-19T19:00:03.379Z,27.7
2023-01-19T19:03:03.344Z,26.4
2023-01-19T19:06:03.528Z,25.5
2023-01-19T19:09:03.479Z,25.5
2023-01-19T19:12:03.354Z,28.8
2023-01-19T19:15:03.354Z,25.4
2023-01-19T19:18:03.354Z,24.4
2023-01-19T19:21:03.361Z,25.1
2023-01-19T19:24:03.394Z,26.4
2023-01-19T19:27:03.372Z,29.2
2023-01-19T19:30:03.384Z,23.9
2023-01-19T19:33:03.373Z,28.6
2023-01-19T19:36:03.379Z,28.3
2023-01-19T19:39:03.392Z,30.3
2023-01-19T19:42:03.409Z,26.1
2023-01-19T19:45:03.383Z,27.7
2023-01-19T19:48:03.386Z,24.5
2023-01-19T19:51:16.869Z,26.4
2023-01-19T19:54:03.394Z,25.7
2023-01-19T19:57:03.396Z,27.1
2023-01-19T20:00:03.421Z,26.6
2023-01-19T20:03:03.413Z,27.3
2023-01-19T20:06:03.412Z,25.4
2023-01-19T20:09:03.404Z,29.9
2023-01-19T20:12:03.407Z,29.1
2023-01-19T20:15:03.442Z,29.6
2023-01-19T20:18:03.439Z,29.3
2023-01-19T20:21:03.423Z,32.1
2023-01-19T20:24:03.423Z,28.9
2023-01-19T20:27:03.423Z,31.2
2023-01-19T20:30:03.425Z,29.4
2023-01-19T20:33:03.430Z,32.3
2023-01-19T20:36:03.453Z,35.3
2023-01-19T20:39:03.436Z,33.2
2023-01-19T20:42:03.442Z,32.7
2023-01-19T20:45:03.438Z,35.4
2023-01-19T20:48:03.439Z,32.9
2023-01-19T20:51:03.437Z,42.7
2023-01-19T20:54:03.464Z,39.2
2023-01-19T20:57:03.446Z,40.4
2023-01-19T21:00:03.445Z,38.8
2023-01-19T21:03:03.446Z,40
2023-01-19T21:06:03.454Z,37.4
2023-01-19T21:09:03.455Z,39.4
2023-01-19T21:12:03.471Z,36.9
2023-01-19T21:15:03.450Z,37.9
2023-01-19T21:18:03.455Z,36.5
2023-01-19T21:21:03.459Z,38.3
2023-01-19T21:24:03.457Z,37.9
2023-01-19T21:27:03.458Z,41
2023-01-19T21:30:03.492Z,37.6
2023-01-19T21:33:03.463Z,39.8
2023-01-19T21:36:03.488Z,42.5
2023-01-19T21:39:03.467Z,41
2023-01-19T21:42:03.473Z,43.5
2023-01-19T21:45:03.499Z,45.5
2023-01-19T21:48:03.513Z,41.4
2023-01-19T21:51:03.496Z,46
2023-01-19T21:54:03.501Z,46.7
2023-01-19T21:57:03.491Z,44
2023-01-19T22:00:03.503Z,45.7
2023-01-19T22:03:04.689Z,49.6
2023-01-19T22:06:03.535Z,48.6
2023-01-19T22:09:03.520Z,52.9
2023-01-19T22:12:03.528Z,49.9
2023-01-19T22:15:03.533Z,49.8
2023-01-19T22:18:03.542Z,47.5
2023-01-19T22:21:03.558Z,52.3
2023-01-19T22:24:03.588Z,47.8
2023-01-19T22:27:03.566Z,48.9
2023-01-19T22:30:03.573Z,49.9
2023-01-19T22:33:03.576Z,53.7
2023-01-19T22:36:03.592Z,58.4
2023-01-19T22:39:03.610Z,51.6
2023-01-19T22:42:03.637Z,55.5
2023-01-19T22:45:03.626Z,50.4
2023-01-19T22:48:03.623Z,52.2
2023-01-19T22:51:03.625Z,51
2023-01-19T22:54:03.654Z,52.1
2023-01-19T22:57:03.651Z,53.5
2023-01-19T23:00:03.694Z,52.8
2023-01-19T23:03:03.673Z,54.7
2023-01-19T23:06:03.678Z,50.8
2023-01-19T23:09:03.713Z,52.2
2023-01-19T23:12:03.745Z,50.8
2023-01-19T23:15:03.757Z,50.7
2023-01-19T23:18:03.801Z,52.2
2023-01-19T23:21:03.782Z,44.3
2023-01-19T23:24:03.859Z,45.7
2023-01-19T23:27:03.852Z,44.5
2023-01-19T23:30:03.856Z,47.6
2023-01-19T23:33:03.861Z,46.8
2023-01-19T23:36:03.882Z,43.3
2023-01-19T23:39:03.866Z,45.8
2023-01-19T23:42:03.870Z,43.3
2023-01-19T23:45:03.873Z,46.7
2023-01-19T23:48:03.871Z,45.8
2023-01-19T23:51:03.866Z,45.1
2023-01-19T23:54:03.896Z,47.1
2023-01-19T23:57:03.876Z,47.1
